sensor_id;sensor_type;location;lat;lon;timestamp;P1;durP1;ratioP1;P2;durP2;ratioP2
19107;SDS011;9686;48.832;9.126;2024-03-02T00:00:22;6.67;;;4.83;;
19107;SDS011;9686;48.832;9.126;2024-03-02T00:02:50;4.53;;;3.60;;
19107;SDS011;9686;48.832;9.126;2024-03-02T00:05:19;8.80;;;5.03;;
19107;SDS011;9686;48.832;9.126;2024-03-02T00:07:54;4.10;;;3.70;;
19107;SDS011;9686;48.832;9.126;2024-03-02T00:10:42;5.63;;;3.90;;
19107;SDS011;9686;48.832;9.126;2024-03-02T00:13:07;6.77;;;4.33;;
19107;SDS011;9686;48.832;9.126;2024-03-02T00:18:12;5.80;;;4.43;;
19107;SDS011;9686;48.832;9.126;2024-03-02T00:20:41;8.97;;;4.87;;
19107;SDS011;9686;48.832;9.126;2024-03-02T00:23:07;5.83;;;3.97;;
19107;SDS011;9686;48.832;9.126;2024-03-02T00:25:38;3.37;;;2.83;;
19107;SDS011;9686;48.832;9.126;2024-03-02T00:28:06;7.13;;;3.50;;
19107;SDS011;9686;48.832;9.126;2024-03-02T00:33:38;4.03;;;3.60;;
19107;SDS011;9686;48.832;9.126;2024-03-02T00:36:08;4.13;;;3.43;;
19107;SDS011;9686;48.832;9.126;2024-03-02T00:38:34;5.23;;;4.00;;
19107;SDS011;9686;48.832;9.126;2024-03-02T00:41:07;3.90;;;3.47;;
19107;SDS011;9686;48.832;9.126;2024-03-02T00:43:41;6.83;;;4.97;;
19107;SDS011;9686;48.832;9.126;2024-03-02T00:46:09;3.20;;;2.97;;
19107;SDS011;9686;48.832;9.126;2024-03-02T00:48:36;3.30;;;2.97;;
19107;SDS011;9686;48.832;9.126;2024-03-02T00:51:02;4.10;;;2.80;;
19107;SDS011;9686;48.832;9.126;2024-03-02T00:53:31;5.17;;;4.00;;
19107;SDS011;9686;48.832;9.126;2024-03-02T00:55:59;4.57;;;3.43;;
19107;SDS011;9686;48.832;9.126;2024-03-02T00:58:26;4.80;;;3.73;;
19107;SDS011;9686;48.832;9.126;2024-03-02T01:00:51;4.10;;;3.70;;
19107;SDS011;9686;48.832;9.126;2024-03-02T01:03:17;4.40;;;3.97;;
19107;SDS011;9686;48.832;9.126;2024-03-02T01:05:43;6.33;;;4.70;;
19107;SDS011;9686;48.832;9.126;2024-03-02T01:08:09;4.53;;;3.97;;
19107;SDS011;9686;48.832;9.126;2024-03-02T01:10:35;4.53;;;3.63;;
19107;SDS011;9686;48.832;9.126;2024-03-02T01:13:00;5.07;;;3.20;;
19107;SDS011;9686;48.832;9.126;2024-03-02T01:15:25;4.17;;;3.77;;
19107;SDS011;9686;48.832;9.126;2024-03-02T01:17:51;4.90;;;4.30;;
19107;SDS011;9686;48.832;9.126;2024-03-02T01:20:16;3.97;;;3.57;;
19107;SDS011;9686;48.832;9.126;2024-03-02T01:22:42;5.50;;;4.03;;
19107;SDS011;9686;48.832;9.126;2024-03-02T01:25:08;3.53;;;2.87;;
19107;SDS011;9686;48.832;9.126;2024-03-02T01:27:33;3.80;;;3.40;;
19107;SDS011;9686;48.832;9.126;2024-03-02T01:29:59;3.57;;;3.27;;
19107;SDS011;9686;48.832;9.126;2024-03-02T01:32:24;5.80;;;3.97;;
19107;SDS011;9686;48.832;9.126;2024-03-02T01:34:50;4.27;;;3.40;;
19107;SDS011;9686;48.832;9.126;2024-03-02T01:37:15;3.43;;;3.17;;
19107;SDS011;9686;48.832;9.126;2024-03-02T01:39:40;6.60;;;4.50;;
19107;SDS011;9686;48.832;9.126;2024-03-02T01:42:06;6.60;;;4.03;;
19107;SDS011;9686;48.832;9.126;2024-03-02T01:44:31;10.27;;;4.57;;
19107;SDS011;9686;48.832;9.126;2024-03-02T01:46:57;4.57;;;3.87;;
19107;SDS011;9686;48.832;9.126;2024-03-02T01:49:22;9.37;;;4.87;;
19107;SDS011;9686;48.832;9.126;2024-03-02T01:51:47;4.37;;;3.97;;
19107;SDS011;9686;48.832;9.126;2024-03-02T01:54:12;4.17;;;3.77;;
19107;SDS011;9686;48.832;9.126;2024-03-02T01:56:38;4.53;;;3.80;;
19107;SDS011;9686;48.832;9.126;2024-03-02T01:59:03;4.73;;;3.47;;
19107;SDS011;9686;48.832;9.126;2024-03-02T02:01:28;3.97;;;3.10;;
19107;SDS011;9686;48.832;9.126;2024-03-02T02:03:54;7.07;;;3.47;;
19107;SDS011;9686;48.832;9.126;2024-03-02T02:06:19;5.97;;;4.63;;
19107;SDS011;9686;48.832;9.126;2024-03-02T02:08:45;6.57;;;4.60;;
19107;SDS011;9686;48.832;9.126;2024-03-02T02:11:14;4.90;;;4.40;;
19107;SDS011;9686;48.832;9.126;2024-03-02T02:13:40;6.13;;;4.77;;
19107;SDS011;9686;48.832;9.126;2024-03-02T02:16:06;7.97;;;4.83;;
19107;SDS011;9686;48.832;9.126;2024-03-02T02:18:32;6.80;;;5.27;;
19107;SDS011;9686;48.832;9.126;2024-03-02T02:20:57;7.47;;;5.80;;
19107;SDS011;9686;48.832;9.126;2024-03-02T02:23:23;5.63;;;5.07;;
19107;SDS011;9686;48.832;9.126;2024-03-02T02:25:48;5.43;;;3.77;;
19107;SDS011;9686;48.832;9.126;2024-03-02T02:28:13;4.80;;;4.40;;
19107;SDS011;9686;48.832;9.126;2024-03-02T02:30:38;4.07;;;3.63;;
19107;SDS011;9686;48.832;9.126;2024-03-02T02:33:04;4.13;;;3.77;;
19107;SDS011;9686;48.832;9.126;2024-03-02T02:35:30;5.40;;;4.30;;
19107;SDS011;9686;48.832;9.126;2024-03-02T02:37:55;8.60;;;5.13;;
19107;SDS011;9686;48.832;9.126;2024-03-02T02:40:22;5.57;;;4.67;;
19107;SDS011;9686;48.832;9.126;2024-03-02T02:42:47;4.80;;;4.40;;
19107;SDS011;9686;48.832;9.126;2024-03-02T02:45:13;7.27;;;5.33;;
19107;SDS011;9686;48.832;9.126;2024-03-02T02:47:40;4.67;;;4.10;;
19107;SDS011;9686;48.832;9.126;2024-03-02T02:50:09;5.87;;;4.13;;
19107;SDS011;9686;48.832;9.126;2024-03-02T02:52:35;6.60;;;4.90;;
19107;SDS011;9686;48.832;9.126;2024-03-02T02:55:05;5.77;;;4.83;;
19107;SDS011;9686;48.832;9.126;2024-03-02T02:57:32;5.77;;;4.17;;
19107;SDS011;9686;48.832;9.126;2024-03-02T03:00:01;8.00;;;4.77;;
19107;SDS011;9686;48.832;9.126;2024-03-02T03:02:52;6.53;;;4.17;;
19107;SDS011;9686;48.832;9.126;2024-03-02T03:05:18;3.40;;;3.10;;
19107;SDS011;9686;48.832;9.126;2024-03-02T03:07:44;4.97;;;4.53;;
19107;SDS011;9686;48.832;9.126;2024-03-02T03:10:09;8.80;;;5.23;;
19107;SDS011;9686;48.832;9.126;2024-03-02T03:12:35;5.43;;;4.33;;
19107;SDS011;9686;48.832;9.126;2024-03-02T03:15:01;4.63;;;4.17;;
19107;SDS011;9686;48.832;9.126;2024-03-02T03:17:28;5.97;;;4.87;;
19107;SDS011;9686;48.832;9.126;2024-03-02T03:19:53;12.30;;;4.93;;
19107;SDS011;9686;48.832;9.126;2024-03-02T03:22:19;8.70;;;5.73;;
19107;SDS011;9686;48.832;9.126;2024-03-02T03:24:45;9.50;;;5.57;;
19107;SDS011;9686;48.832;9.126;2024-03-02T03:27:10;5.50;;;5.00;;
19107;SDS011;9686;48.832;9.126;2024-03-02T03:29:38;6.57;;;4.97;;
19107;SDS011;9686;48.832;9.126;2024-03-02T03:32:04;6.60;;;5.90;;
19107;SDS011;9686;48.832;9.126;2024-03-02T03:34:33;4.10;;;3.80;;
19107;SDS011;9686;48.832;9.126;2024-03-02T03:36:59;7.77;;;5.00;;
19107;SDS011;9686;48.832;9.126;2024-03-02T03:39:24;7.23;;;4.90;;
19107;SDS011;9686;48.832;9.126;2024-03-02T03:41:50;6.53;;;5.67;;
19107;SDS011;9686;48.832;9.126;2024-03-02T03:44:15;8.53;;;5.50;;
19107;SDS011;9686;48.832;9.126;2024-03-02T03:46:41;6.07;;;5.20;;
19107;SDS011;9686;48.832;9.126;2024-03-02T03:49:06;6.23;;;4.63;;
19107;SDS011;9686;48.832;9.126;2024-03-02T03:51:32;6.83;;;4.70;;
19107;SDS011;9686;48.832;9.126;2024-03-02T03:53:58;7.87;;;5.43;;
19107;SDS011;9686;48.832;9.126;2024-03-02T03:56:23;5.67;;;4.23;;
19107;SDS011;9686;48.832;9.126;2024-03-02T03:58:49;5.23;;;4.73;;
19107;SDS011;9686;48.832;9.126;2024-03-02T04:01:14;4.83;;;4.20;;
19107;SDS011;9686;48.832;9.126;2024-03-02T04:03:39;6.50;;;5.20;;
19107;SDS011;9686;48.832;9.126;2024-03-02T04:06:04;7.27;;;4.90;;
19107;SDS011;9686;48.832;9.126;2024-03-02T04:08:30;10.67;;;5.27;;
19107;SDS011;9686;48.832;9.126;2024-03-02T04:10:56;7.03;;;4.90;;
19107;SDS011;9686;48.832;9.126;2024-03-02T04:13:21;5.90;;;4.57;;
19107;SDS011;9686;48.832;9.126;2024-03-02T04:15:46;8.90;;;4.70;;
19107;SDS011;9686;48.832;9.126;2024-03-02T04:18:12;4.67;;;4.27;;
19107;SDS011;9686;48.832;9.126;2024-03-02T04:20:37;5.70;;;4.63;;
19107;SDS011;9686;48.832;9.126;2024-03-02T04:23:03;6.17;;;4.27;;
19107;SDS011;9686;48.832;9.126;2024-03-02T04:25:28;10.10;;;5.33;;
19107;SDS011;9686;48.832;9.126;2024-03-02T04:27:53;7.83;;;4.63;;
19107;SDS011;9686;48.832;9.126;2024-03-02T04:30:19;8.83;;;5.67;;
19107;SDS011;9686;48.832;9.126;2024-03-02T04:32:44;5.90;;;4.40;;
19107;SDS011;9686;48.832;9.126;2024-03-02T04:35:11;13.77;;;4.70;;
19107;SDS011;9686;48.832;9.126;2024-03-02T04:37:37;5.03;;;4.07;;
19107;SDS011;9686;48.832;9.126;2024-03-02T04:40:03;4.50;;;4.07;;
19107;SDS011;9686;48.832;9.126;2024-03-02T04:42:33;5.13;;;4.37;;
19107;SDS011;9686;48.832;9.126;2024-03-02T04:44:58;8.40;;;5.87;;
19107;SDS011;9686;48.832;9.126;2024-03-02T04:47:23;12.67;;;5.50;;
19107;SDS011;9686;48.832;9.126;2024-03-02T04:49:48;6.23;;;5.40;;
19107;SDS011;9686;48.832;9.126;2024-03-02T04:52:14;6.13;;;3.93;;
19107;SDS011;9686;48.832;9.126;2024-03-02T04:54:39;6.20;;;4.70;;
19107;SDS011;9686;48.832;9.126;2024-03-02T04:57:23;8.70;;;5.57;;
19107;SDS011;9686;48.832;9.126;2024-03-02T04:59:48;4.50;;;4.10;;
19107;SDS011;9686;48.832;9.126;2024-03-02T05:02:14;8.43;;;6.47;;
19107;SDS011;9686;48.832;9.126;2024-03-02T05:04:39;5.57;;;4.87;;
19107;SDS011;9686;48.832;9.126;2024-03-02T05:07:05;5.77;;;4.77;;
19107;SDS011;9686;48.832;9.126;2024-03-02T05:09:30;5.60;;;4.40;;
19107;SDS011;9686;48.832;9.126;2024-03-02T05:11:55;8.20;;;4.53;;
19107;SDS011;9686;48.832;9.126;2024-03-02T05:14:39;4.90;;;4.47;;
19107;SDS011;9686;48.832;9.126;2024-03-02T05:17:04;7.53;;;5.30;;
19107;SDS011;9686;48.832;9.126;2024-03-02T05:19:30;6.27;;;5.57;;
19107;SDS011;9686;48.832;9.126;2024-03-02T05:21:55;7.70;;;5.03;;
19107;SDS011;9686;48.832;9.126;2024-03-02T05:24:20;6.10;;;4.80;;
19107;SDS011;9686;48.832;9.126;2024-03-02T05:26:46;6.50;;;5.00;;
19107;SDS011;9686;48.832;9.126;2024-03-02T05:29:11;10.60;;;5.50;;
19107;SDS011;9686;48.832;9.126;2024-03-02T05:31:37;6.17;;;4.70;;
19107;SDS011;9686;48.832;9.126;2024-03-02T05:34:02;6.07;;;4.43;;
19107;SDS011;9686;48.832;9.126;2024-03-02T05:36:27;13.93;;;5.47;;
19107;SDS011;9686;48.832;9.126;2024-03-02T05:38:53;3.60;;;3.30;;
19107;SDS011;9686;48.832;9.126;2024-03-02T05:41:18;6.30;;;5.20;;
19107;SDS011;9686;48.832;9.126;2024-03-02T05:43:43;8.40;;;4.97;;
19107;SDS011;9686;48.832;9.126;2024-03-02T05:46:09;7.07;;;5.73;;
19107;SDS011;9686;48.832;9.126;2024-03-02T05:48:34;6.63;;;4.80;;
19107;SDS011;9686;48.832;9.126;2024-03-02T05:50:59;5.13;;;4.60;;
19107;SDS011;9686;48.832;9.126;2024-03-02T05:53:24;4.63;;;4.13;;
19107;SDS011;9686;48.832;9.126;2024-03-02T05:55:50;6.03;;;3.77;;
19107;SDS011;9686;48.832;9.126;2024-03-02T05:58:20;9.13;;;4.93;;
19107;SDS011;9686;48.832;9.126;2024-03-02T06:01:04;7.17;;;5.17;;
19107;SDS011;9686;48.832;9.126;2024-03-02T06:03:30;5.23;;;4.67;;
19107;SDS011;9686;48.832;9.126;2024-03-02T06:05:55;9.07;;;5.37;;
19107;SDS011;9686;48.832;9.126;2024-03-02T06:08:21;8.50;;;5.43;;
19107;SDS011;9686;48.832;9.126;2024-03-02T06:10:46;7.07;;;5.43;;
19107;SDS011;9686;48.832;9.126;2024-03-02T06:13:11;5.87;;;5.23;;
19107;SDS011;9686;48.832;9.126;2024-03-02T06:15:37;5.27;;;4.83;;
19107;SDS011;9686;48.832;9.126;2024-03-02T06:18:02;7.37;;;4.40;;
19107;SDS011;9686;48.832;9.126;2024-03-02T06:20:28;6.50;;;4.30;;
19107;SDS011;9686;48.832;9.126;2024-03-02T06:22:55;7.53;;;6.00;;
19107;SDS011;9686;48.832;9.126;2024-03-02T06:25:21;5.53;;;4.60;;
19107;SDS011;9686;48.832;9.126;2024-03-02T06:27:46;7.57;;;6.27;;
19107;SDS011;9686;48.832;9.126;2024-03-02T06:30:12;8.37;;;4.67;;
19107;SDS011;9686;48.832;9.126;2024-03-02T06:32:37;13.97;;;5.90;;
19107;SDS011;9686;48.832;9.126;2024-03-02T06:35:02;7.00;;;5.70;;
19107;SDS011;9686;48.832;9.126;2024-03-02T06:37:29;8.53;;;5.07;;
19107;SDS011;9686;48.832;9.126;2024-03-02T06:39:55;9.67;;;5.67;;
19107;SDS011;9686;48.832;9.126;2024-03-02T06:42:20;17.13;;;4.67;;
19107;SDS011;9686;48.832;9.126;2024-03-02T06:44:45;6.10;;;5.40;;
19107;SDS011;9686;48.832;9.126;2024-03-02T06:47:10;9.13;;;5.60;;
19107;SDS011;9686;48.832;9.126;2024-03-02T06:49:36;9.97;;;7.37;;
19107;SDS011;9686;48.832;9.126;2024-03-02T06:52:01;12.83;;;5.40;;
19107;SDS011;9686;48.832;9.126;2024-03-02T06:54:27;7.77;;;5.50;;
19107;SDS011;9686;48.832;9.126;2024-03-02T06:56:52;8.93;;;5.83;;
19107;SDS011;9686;48.832;9.126;2024-03-02T06:59:17;9.33;;;5.70;;
19107;SDS011;9686;48.832;9.126;2024-03-02T07:01:43;8.07;;;5.97;;
19107;SDS011;9686;48.832;9.126;2024-03-02T07:04:08;5.00;;;4.20;;
19107;SDS011;9686;48.832;9.126;2024-03-02T07:06:34;5.30;;;4.80;;
19107;SDS011;9686;48.832;9.126;2024-03-02T07:08:59;10.97;;;6.47;;
19107;SDS011;9686;48.832;9.126;2024-03-02T07:11:24;8.83;;;5.10;;
19107;SDS011;9686;48.832;9.126;2024-03-02T07:13:49;8.60;;;6.27;;
19107;SDS011;9686;48.832;9.126;2024-03-02T07:16:15;5.80;;;5.23;;
19107;SDS011;9686;48.832;9.126;2024-03-02T07:18:53;7.57;;;5.53;;
19107;SDS011;9686;48.832;9.126;2024-03-02T07:21:20;8.73;;;6.10;;
19107;SDS011;9686;48.832;9.126;2024-03-02T07:23:47;6.57;;;4.30;;
19107;SDS011;9686;48.832;9.126;2024-03-02T07:26:13;6.47;;;4.90;;
19107;SDS011;9686;48.832;9.126;2024-03-02T07:28:39;8.23;;;4.93;;
19107;SDS011;9686;48.832;9.126;2024-03-02T07:31:05;7.53;;;5.47;;
19107;SDS011;9686;48.832;9.126;2024-03-02T07:33:31;6.30;;;5.37;;
19107;SDS011;9686;48.832;9.126;2024-03-02T07:35:57;6.83;;;5.73;;
19107;SDS011;9686;48.832;9.126;2024-03-02T07:38:24;10.17;;;5.80;;
19107;SDS011;9686;48.832;9.126;2024-03-02T07:40:49;8.37;;;5.43;;
19107;SDS011;9686;48.832;9.126;2024-03-02T07:43:18;6.13;;;4.60;;
19107;SDS011;9686;48.832;9.126;2024-03-02T07:45:44;5.83;;;4.87;;
19107;SDS011;9686;48.832;9.126;2024-03-02T07:48:10;7.47;;;5.00;;
19107;SDS011;9686;48.832;9.126;2024-03-02T07:50:35;8.53;;;5.13;;
19107;SDS011;9686;48.832;9.126;2024-03-02T07:53:02;6.70;;;4.97;;
19107;SDS011;9686;48.832;9.126;2024-03-02T07:55:28;7.87;;;5.17;;
19107;SDS011;9686;48.832;9.126;2024-03-02T07:57:54;9.07;;;5.57;;
19107;SDS011;9686;48.832;9.126;2024-03-02T08:00:19;7.90;;;4.90;;
19107;SDS011;9686;48.832;9.126;2024-03-02T08:02:45;9.00;;;5.17;;
19107;SDS011;9686;48.832;9.126;2024-03-02T08:05:10;5.87;;;5.27;;
19107;SDS011;9686;48.832;9.126;2024-03-02T08:07:36;9.23;;;3.93;;
19107;SDS011;9686;48.832;9.126;2024-03-02T08:10:01;4.73;;;3.87;;
19107;SDS011;9686;48.832;9.126;2024-03-02T08:12:26;5.00;;;4.20;;
19107;SDS011;9686;48.832;9.126;2024-03-02T08:14:52;5.03;;;3.90;;
19107;SDS011;9686;48.832;9.126;2024-03-02T08:17:17;6.50;;;4.50;;
19107;SDS011;9686;48.832;9.126;2024-03-02T08:19:42;5.10;;;4.60;;
19107;SDS011;9686;48.832;9.126;2024-03-02T08:22:08;6.73;;;4.57;;
19107;SDS011;9686;48.832;9.126;2024-03-02T08:24:34;6.10;;;4.77;;
19107;SDS011;9686;48.832;9.126;2024-03-02T08:27:00;4.37;;;3.60;;
19107;SDS011;9686;48.832;9.126;2024-03-02T08:29:26;6.17;;;3.90;;
19107;SDS011;9686;48.832;9.126;2024-03-02T08:31:52;6.10;;;4.80;;
19107;SDS011;9686;48.832;9.126;2024-03-02T08:34:18;4.93;;;4.47;;
19107;SDS011;9686;48.832;9.126;2024-03-02T08:36:43;3.80;;;3.27;;
19107;SDS011;9686;48.832;9.126;2024-03-02T08:39:09;7.57;;;5.07;;
19107;SDS011;9686;48.832;9.126;2024-03-02T08:41:49;8.53;;;3.87;;
19107;SDS011;9686;48.832;9.126;2024-03-02T08:44:14;6.50;;;4.90;;
19107;SDS011;9686;48.832;9.126;2024-03-02T08:46:40;4.20;;;3.70;;
19107;SDS011;9686;48.832;9.126;2024-03-02T08:49:06;3.67;;;2.90;;
19107;SDS011;9686;48.832;9.126;2024-03-02T08:51:31;3.93;;;3.53;;
19107;SDS011;9686;48.832;9.126;2024-03-02T08:53:57;2.73;;;2.53;;
19107;SDS011;9686;48.832;9.126;2024-03-02T08:56:23;4.60;;;3.63;;
19107;SDS011;9686;48.832;9.126;2024-03-02T08:58:49;4.57;;;3.03;;
19107;SDS011;9686;48.832;9.126;2024-03-02T09:01:15;4.03;;;2.77;;
19107;SDS011;9686;48.832;9.126;2024-03-02T09:03:41;3.10;;;2.80;;
19107;SDS011;9686;48.832;9.126;2024-03-02T09:06:09;3.90;;;2.87;;
19107;SDS011;9686;48.832;9.126;2024-03-02T09:08:35;5.23;;;2.60;;
19107;SDS011;9686;48.832;9.126;2024-03-02T09:11:01;2.87;;;2.53;;
19107;SDS011;9686;48.832;9.126;2024-03-02T09:13:27;3.13;;;2.10;;
19107;SDS011;9686;48.832;9.126;2024-03-02T09:15:53;5.70;;;3.47;;
19107;SDS011;9686;48.832;9.126;2024-03-02T09:18:18;3.23;;;1.90;;
19107;SDS011;9686;48.832;9.126;2024-03-02T09:20:43;3.23;;;2.43;;
19107;SDS011;9686;48.832;9.126;2024-03-02T09:23:08;1.93;;;1.83;;
19107;SDS011;9686;48.832;9.126;2024-03-02T09:25:34;5.93;;;2.30;;
19107;SDS011;9686;48.832;9.126;2024-03-02T09:27:59;2.57;;;1.90;;
19107;SDS011;9686;48.832;9.126;2024-03-02T09:30:24;4.13;;;2.10;;
19107;SDS011;9686;48.832;9.126;2024-03-02T09:32:50;2.23;;;2.03;;
19107;SDS011;9686;48.832;9.126;2024-03-02T09:35:15;2.87;;;1.70;;
19107;SDS011;9686;48.832;9.126;2024-03-02T09:37:40;2.67;;;2.27;;
19107;SDS011;9686;48.832;9.126;2024-03-02T09:40:06;2.07;;;1.80;;
19107;SDS011;9686;48.832;9.126;2024-03-02T09:42:31;4.00;;;2.00;;
19107;SDS011;9686;48.832;9.126;2024-03-02T09:44:57;4.53;;;3.10;;
19107;SDS011;9686;48.832;9.126;2024-03-02T09:47:22;2.93;;;1.80;;
19107;SDS011;9686;48.832;9.126;2024-03-02T09:49:48;2.87;;;1.57;;
19107;SDS011;9686;48.832;9.126;2024-03-02T09:52:14;3.43;;;1.93;;
19107;SDS011;9686;48.832;9.126;2024-03-02T09:54:39;3.17;;;2.43;;
19107;SDS011;9686;48.832;9.126;2024-03-02T09:57:05;4.03;;;1.80;;
19107;SDS011;9686;48.832;9.126;2024-03-02T09:59:30;2.40;;;2.00;;
19107;SDS011;9686;48.832;9.126;2024-03-02T10:01:56;2.00;;;1.77;;
19107;SDS011;9686;48.832;9.126;2024-03-02T10:04:25;3.57;;;2.20;;
19107;SDS011;9686;48.832;9.126;2024-03-02T10:06:51;4.90;;;1.87;;
19107;SDS011;9686;48.832;9.126;2024-03-02T10:09:26;2.17;;;1.67;;
19107;SDS011;9686;48.832;9.126;2024-03-02T10:12:01;1.53;;;1.20;;
19107;SDS011;9686;48.832;9.126;2024-03-02T10:14:29;2.53;;;1.97;;
19107;SDS011;9686;48.832;9.126;2024-03-02T10:16:55;1.77;;;1.30;;
19107;SDS011;9686;48.832;9.126;2024-03-02T10:19:27;1.80;;;1.10;;
19107;SDS011;9686;48.832;9.126;2024-03-02T10:21:57;1.17;;;1.03;;
19107;SDS011;9686;48.832;9.126;2024-03-02T10:24:23;1.83;;;1.30;;
19107;SDS011;9686;48.832;9.126;2024-03-02T10:26:49;2.57;;;1.73;;
19107;SDS011;9686;48.832;9.126;2024-03-02T10:29:15;1.33;;;1.23;;
19107;SDS011;9686;48.832;9.126;2024-03-02T10:31:41;2.00;;;1.53;;
19107;SDS011;9686;48.832;9.126;2024-03-02T10:34:09;3.23;;;2.10;;
19107;SDS011;9686;48.832;9.126;2024-03-02T10:36:36;1.30;;;1.20;;
19107;SDS011;9686;48.832;9.126;2024-03-02T10:39:05;7.53;;;1.83;;
19107;SDS011;9686;48.832;9.126;2024-03-02T10:41:32;2.77;;;1.67;;
19107;SDS011;9686;48.832;9.126;2024-03-02T10:43:59;1.43;;;1.33;;
19107;SDS011;9686;48.832;9.126;2024-03-02T10:46:28;1.73;;;1.20;;
19107;SDS011;9686;48.832;9.126;2024-03-02T10:48:55;1.53;;;1.43;;
19107;SDS011;9686;48.832;9.126;2024-03-02T10:51:27;7.27;;;2.13;;
19107;SDS011;9686;48.832;9.126;2024-03-02T10:53:56;0.90;;;0.80;;
19107;SDS011;9686;48.832;9.126;2024-03-02T10:56:28;2.93;;;1.80;;
19107;SDS011;9686;48.832;9.126;2024-03-02T11:01:59;1.67;;;1.57;;
19107;SDS011;9686;48.832;9.126;2024-03-02T11:04:26;4.37;;;2.13;;
19107;SDS011;9686;48.832;9.126;2024-03-02T11:06:52;2.90;;;1.83;;
19107;SDS011;9686;48.832;9.126;2024-03-02T11:09:31;1.20;;;1.20;;
19107;SDS011;9686;48.832;9.126;2024-03-02T11:14:34;1.50;;;1.40;;
19107;SDS011;9686;48.832;9.126;2024-03-02T11:17:05;3.70;;;1.97;;
19107;SDS011;9686;48.832;9.126;2024-03-02T11:19:32;2.33;;;1.70;;
19107;SDS011;9686;48.832;9.126;2024-03-02T11:21:59;2.53;;;1.77;;
19107;SDS011;9686;48.832;9.126;2024-03-02T11:26:57;2.30;;;1.90;;
19107;SDS011;9686;48.832;9.126;2024-03-02T11:29:42;2.60;;;1.77;;
19107;SDS011;9686;48.832;9.126;2024-03-02T11:32:14;1.57;;;1.33;;
19107;SDS011;9686;48.832;9.126;2024-03-02T11:34:44;2.73;;;1.33;;
19107;SDS011;9686;48.832;9.126;2024-03-02T11:37:20;1.00;;;0.90;;
19107;SDS011;9686;48.832;9.126;2024-03-02T11:39:46;1.70;;;1.60;;
19107;SDS011;9686;48.832;9.126;2024-03-02T11:42:14;0.60;;;0.60;;
19107;SDS011;9686;48.832;9.126;2024-03-02T11:44:46;2.80;;;1.37;;
19107;SDS011;9686;48.832;9.126;2024-03-02T11:47:14;0.87;;;0.47;;
19107;SDS011;9686;48.832;9.126;2024-03-02T11:49:45;0.60;;;0.60;;
19107;SDS011;9686;48.832;9.126;2024-03-02T11:52:15;0.40;;;0.40;;
19107;SDS011;9686;48.832;9.126;2024-03-02T11:54:43;0.50;;;0.50;;
19107;SDS011;9686;48.832;9.126;2024-03-02T11:57:14;0.83;;;0.60;;
19107;SDS011;9686;48.832;9.126;2024-03-02T11:59:41;0.77;;;0.60;;
19107;SDS011;9686;48.832;9.126;2024-03-02T12:02:06;0.70;;;0.70;;
19107;SDS011;9686;48.832;9.126;2024-03-02T12:04:42;1.30;;;0.97;;
19107;SDS011;9686;48.832;9.126;2024-03-02T12:07:08;0.87;;;0.87;;
19107;SDS011;9686;48.832;9.126;2024-03-02T12:09:34;0.30;;;0.30;;
19107;SDS011;9686;48.832;9.126;2024-03-02T12:14:29;2.33;;;0.67;;
19107;SDS011;9686;48.832;9.126;2024-03-02T12:16:55;0.73;;;0.60;;
19107;SDS011;9686;48.832;9.126;2024-03-02T12:19:20;2.20;;;0.80;;
19107;SDS011;9686;48.832;9.126;2024-03-02T12:21:46;0.80;;;0.40;;
19107;SDS011;9686;48.832;9.126;2024-03-02T12:24:11;1.43;;;0.47;;
19107;SDS011;9686;48.832;9.126;2024-03-02T12:26:36;0.40;;;0.40;;
19107;SDS011;9686;48.832;9.126;2024-03-02T12:29:02;0.63;;;0.60;;
19107;SDS011;9686;48.832;9.126;2024-03-02T12:31:27;0.70;;;0.50;;
19107;SDS011;9686;48.832;9.126;2024-03-02T12:33:53;0.60;;;0.60;;
19107;SDS011;9686;48.832;9.126;2024-03-02T12:36:19;1.00;;;0.90;;
19107;SDS011;9686;48.832;9.126;2024-03-02T12:38:44;0.60;;;0.60;;
19107;SDS011;9686;48.832;9.126;2024-03-02T12:41:11;10.30;;;1.17;;
19107;SDS011;9686;48.832;9.126;2024-03-02T12:43:40;0.40;;;0.30;;
19107;SDS011;9686;48.832;9.126;2024-03-02T12:46:05;0.83;;;0.70;;
19107;SDS011;9686;48.832;9.126;2024-03-02T12:48:31;1.30;;;0.40;;
19107;SDS011;9686;48.832;9.126;2024-03-02T12:50:56;2.83;;;0.67;;
19107;SDS011;9686;48.832;9.126;2024-03-02T12:53:21;0.40;;;0.40;;
19107;SDS011;9686;48.832;9.126;2024-03-02T12:55:47;0.40;;;0.20;;
19107;SDS011;9686;48.832;9.126;2024-03-02T12:58:20;0.50;;;0.47;;
19107;SDS011;9686;48.832;9.126;2024-03-02T13:00:48;0.77;;;0.60;;
19107;SDS011;9686;48.832;9.126;2024-03-02T13:03:14;0.30;;;0.30;;
19107;SDS011;9686;48.832;9.126;2024-03-02T13:05:40;0.60;;;0.50;;
19107;SDS011;9686;48.832;9.126;2024-03-02T13:08:06;0.40;;;0.40;;
19107;SDS011;9686;48.832;9.126;2024-03-02T13:10:32;0.50;;;0.50;;
19107;SDS011;9686;48.832;9.126;2024-03-02T13:12:58;0.63;;;0.53;;
19107;SDS011;9686;48.832;9.126;2024-03-02T13:15:28;0.93;;;0.63;;
19107;SDS011;9686;48.832;9.126;2024-03-02T13:17:53;0.47;;;0.47;;
19107;SDS011;9686;48.832;9.126;2024-03-02T13:20:18;0.33;;;0.33;;
19107;SDS011;9686;48.832;9.126;2024-03-02T13:22:45;0.87;;;0.87;;
19107;SDS011;9686;48.832;9.126;2024-03-02T13:25:10;0.30;;;0.30;;
19107;SDS011;9686;48.832;9.126;2024-03-02T13:27:36;0.50;;;0.50;;
19107;SDS011;9686;48.832;9.126;2024-03-02T13:30:02;0.70;;;0.40;;
19107;SDS011;9686;48.832;9.126;2024-03-02T13:32:30;0.43;;;0.43;;
19107;SDS011;9686;48.832;9.126;2024-03-02T13:34:56;0.50;;;0.50;;
19107;SDS011;9686;48.832;9.126;2024-03-02T13:37:21;0.53;;;0.53;;
19107;SDS011;9686;48.832;9.126;2024-03-02T13:39:47;0.97;;;0.70;;
19107;SDS011;9686;48.832;9.126;2024-03-02T13:42:12;0.77;;;0.63;;
19107;SDS011;9686;48.832;9.126;2024-03-02T13:44:40;1.23;;;0.67;;
19107;SDS011;9686;48.832;9.126;2024-03-02T13:47:06;0.50;;;0.50;;
19107;SDS011;9686;48.832;9.126;2024-03-02T13:49:32;0.60;;;0.50;;
19107;SDS011;9686;48.832;9.126;2024-03-02T13:52:06;1.30;;;0.77;;
19107;SDS011;9686;48.832;9.126;2024-03-02T13:54:44;0.47;;;0.33;;
19107;SDS011;9686;48.832;9.126;2024-03-02T13:57:11;0.60;;;0.50;;
19107;SDS011;9686;48.832;9.126;2024-03-02T13:59:37;1.43;;;0.70;;
19107;SDS011;9686;48.832;9.126;2024-03-02T14:02:04;0.50;;;0.50;;
19107;SDS011;9686;48.832;9.126;2024-03-02T14:04:31;0.37;;;0.37;;
19107;SDS011;9686;48.832;9.126;2024-03-02T14:06:58;0.40;;;0.40;;
19107;SDS011;9686;48.832;9.126;2024-03-02T14:09:24;0.93;;;0.77;;
19107;SDS011;9686;48.832;9.126;2024-03-02T14:11:50;1.20;;;0.60;;
19107;SDS011;9686;48.832;9.126;2024-03-02T14:14:16;0.33;;;0.33;;
19107;SDS011;9686;48.832;9.126;2024-03-02T14:16:42;2.10;;;0.60;;
19107;SDS011;9686;48.832;9.126;2024-03-02T14:19:07;0.30;;;0.30;;
19107;SDS011;9686;48.832;9.126;2024-03-02T14:21:34;0.40;;;0.40;;
19107;SDS011;9686;48.832;9.126;2024-03-02T14:24:00;0.83;;;0.73;;
19107;SDS011;9686;48.832;9.126;2024-03-02T14:26:26;1.60;;;0.40;;
19107;SDS011;9686;48.832;9.126;2024-03-02T14:28:53;0.30;;;0.30;;
19107;SDS011;9686;48.832;9.126;2024-03-02T14:31:18;0.77;;;0.77;;
19107;SDS011;9686;48.832;9.126;2024-03-02T14:33:44;0.97;;;0.60;;
19107;SDS011;9686;48.832;9.126;2024-03-02T14:36:10;0.30;;;0.30;;
19107;SDS011;9686;48.832;9.126;2024-03-02T14:38:36;0.60;;;0.53;;
19107;SDS011;9686;48.832;9.126;2024-03-02T14:41:02;0.60;;;0.60;;
19107;SDS011;9686;48.832;9.126;2024-03-02T14:43:28;4.70;;;0.83;;
19107;SDS011;9686;48.832;9.126;2024-03-02T14:45:53;0.43;;;0.43;;
19107;SDS011;9686;48.832;9.126;2024-03-02T14:48:20;0.70;;;0.50;;
19107;SDS011;9686;48.832;9.126;2024-03-02T14:50:45;0.83;;;0.77;;
19107;SDS011;9686;48.832;9.126;2024-03-02T14:53:11;0.53;;;0.27;;
19107;SDS011;9686;48.832;9.126;2024-03-02T14:55:36;0.30;;;0.30;;
19107;SDS011;9686;48.832;9.126;2024-03-02T14:58:02;0.40;;;0.40;;
19107;SDS011;9686;48.832;9.126;2024-03-02T15:00:27;0.40;;;0.40;;
19107;SDS011;9686;48.832;9.126;2024-03-02T15:02:54;0.50;;;0.50;;
19107;SDS011;9686;48.832;9.126;2024-03-02T15:05:19;0.40;;;0.40;;
19107;SDS011;9686;48.832;9.126;2024-03-02T15:07:45;1.00;;;0.77;;
19107;SDS011;9686;48.832;9.126;2024-03-02T15:10:10;0.30;;;0.30;;
19107;SDS011;9686;48.832;9.126;2024-03-02T15:12:36;0.50;;;0.43;;